sensor_id;sensor_type;location;lat;lon;timestamp;temperature;humidity
9977;DHT22;5029;47.378;11.776;2022-10-30T00:04:15;8.00;99.90
9977;DHT22;5029;47.378;11.776;2022-10-30T00:09:20;8.00;99.90
9977;DHT22;5029;47.378;11.776;2022-10-30T00:14:23;8.10;99.90
9977;DHT22;5029;47.378;11.776;2022-10-30T00:19:27;8.00;99.90
9977;DHT22;5029;47.378;11.776;2022-10-30T00:24:32;7.80;99.90
9977;DHT22;5029;47.378;11.776;2022-10-30T00:29:36;8.00;99.90
9977;DHT22;5029;47.378;11.776;2022-10-30T00:34:39;8.10;99.90
9977;DHT22;5029;47.378;11.776;2022-10-30T00:39:44;8.20;99.90
9977;DHT22;5029;47.378;11.776;2022-10-30T00:44:49;8.10;99.90
9977;DHT22;5029;47.378;11.776;2022-10-30T00:49:57;7.90;99.90
9977;DHT22;5029;47.378;11.776;2022-10-30T00:55:06;7.90;99.90
9977;DHT22;5029;47.378;11.776;2022-10-30T01:00:12;7.80;99.90
9977;DHT22;5029;47.378;11.776;2022-10-30T01:05:17;7.80;99.90
9977;DHT22;5029;47.378;11.776;2022-10-30T01:10:24;7.90;99.90
9977;DHT22;5029;47.378;11.776;2022-10-30T01:15:30;7.90;99.90
9977;DHT22;5029;47.378;11.776;2022-10-30T01:20:53;7.80;99.90
9977;DHT22;5029;47.378;11.776;2022-10-30T01:26:06;7.70;99.90
9977;DHT22;5029;47.378;11.776;2022-10-30T01:31:25;7.60;99.90
9977;DHT22;5029;47.378;11.776;2022-10-30T01:36:36;7.60;99.90
9977;DHT22;5029;47.378;11.776;2022-10-30T01:41:42;7.50;99.90
9977;DHT22;5029;47.378;11.776;2022-10-30T01:47:01;7.50;99.90
9977;DHT22;5029;47.378;11.776;2022-10-30T01:52:15;7.50;99.90
9977;DHT22;5029;47.378;11.776;2022-10-30T01:57:33;7.50;99.90
9977;DHT22;5029;47.378;11.776;2022-10-30T02:02:39;7.40;99.90
9977;DHT22;5029;47.378;11.776;2022-10-30T02:07:43;7.40;99.90
9977;DHT22;5029;47.378;11.776;2022-10-30T02:12:48;7.40;99.90
9977;DHT22;5029;47.378;11.776;2022-10-30T02:17:53;7.40;99.90
9977;DHT22;5029;47.378;11.776;2022-10-30T02:22:59;7.30;99.90
9977;DHT22;5029;47.378;11.776;2022-10-30T02:28:04;7.30;99.90
9977;DHT22;5029;47.378;11.776;2022-10-30T02:33:07;7.30;99.90
9977;DHT22;5029;47.378;11.776;2022-10-30T02:38:13;7.20;99.90
9977;DHT22;5029;47.378;11.776;2022-10-30T02:43:16;7.30;99.90
9977;DHT22;5029;47.378;11.776;2022-10-30T02:48:20;7.30;99.90
9977;DHT22;5029;47.378;11.776;2022-10-30T02:53:25;7.40;99.90
9977;DHT22;5029;47.378;11.776;2022-10-30T02:58:28;7.50;99.90
9977;DHT22;5029;47.378;11.776;2022-10-30T03:03:32;7.30;99.90
9977;DHT22;5029;47.378;11.776;2022-10-30T03:08:37;7.20;99.90
9977;DHT22;5029;47.378;11.776;2022-10-30T03:13:41;7.20;99.90
9977;DHT22;5029;47.378;11.776;2022-10-30T03:18:46;7.30;99.90
9977;DHT22;5029;47.378;11.776;2022-10-30T03:23:52;7.30;99.90
9977;DHT22;5029;47.378;11.776;2022-10-30T03:28:55;7.20;99.90
9977;DHT22;5029;47.378;11.776;2022-10-30T03:33:59;7.20;99.90
9977;DHT22;5029;47.378;11.776;2022-10-30T03:39:04;7.20;99.90
9977;DHT22;5029;47.378;11.776;2022-10-30T03:44:08;7.20;99.90
9977;DHT22;5029;47.378;11.776;2022-10-30T03:49:11;7.20;99.90
9977;DHT22;5029;47.378;11.776;2022-10-30T03:54:16;7.20;99.90
9977;DHT22;5029;47.378;11.776;2022-10-30T03:59:20;7.10;99.90
9977;DHT22;5029;47.378;11.776;2022-10-30T04:04:23;7.10;99.90
9977;DHT22;5029;47.378;11.776;2022-10-30T04:09:28;6.90;99.90
9977;DHT22;5029;47.378;11.776;2022-10-30T04:14:32;7.10;99.90
9977;DHT22;5029;47.378;11.776;2022-10-30T04:19:35;7.00;99.90
9977;DHT22;5029;47.378;11.776;2022-10-30T04:24:40;7.00;99.90
9977;DHT22;5029;47.378;11.776;2022-10-30T04:29:44;7.10;99.90
9977;DHT22;5029;47.378;11.776;2022-10-30T04:34:47;6.90;99.90
9977;DHT22;5029;47.378;11.776;2022-10-30T04:39:55;7.00;99.90
9977;DHT22;5029;47.378;11.776;2022-10-30T04:44:59;6.90;99.90
9977;DHT22;5029;47.378;11.776;2022-10-30T04:50:06;6.80;99.90
9977;DHT22;5029;47.378;11.776;2022-10-30T04:55:11;6.90;99.90
9977;DHT22;5029;47.378;11.776;2022-10-30T05:00:15;6.70;99.90
9977;DHT22;5029;47.378;11.776;2022-10-30T05:05:19;6.80;99.90
9977;DHT22;5029;47.378;11.776;2022-10-30T05:10:24;6.80;99.90
9977;DHT22;5029;47.378;11.776;2022-10-30T05:15:28;6.70;99.90
9977;DHT22;5029;47.378;11.776;2022-10-30T05:20:32;6.60;99.90
9977;DHT22;5029;47.378;11.776;2022-10-30T05:25:37;6.50;99.90
9977;DHT22;5029;47.378;11.776;2022-10-30T05:30:40;6.60;99.90
9977;DHT22;5029;47.378;11.776;2022-10-30T05:35:44;6.60;99.90
9977;DHT22;5029;47.378;11.776;2022-10-30T05:40:49;6.60;99.90
9977;DHT22;5029;47.378;11.776;2022-10-30T05:45:53;6.50;99.90
9977;DHT22;5029;47.378;11.776;2022-10-30T05:50:56;6.40;99.90
9977;DHT22;5029;47.378;11.776;2022-10-30T05:56:02;6.40;99.90
9977;DHT22;5029;47.378;11.776;2022-10-30T06:01:15;6.40;99.90
9977;DHT22;5029;47.378;11.776;2022-10-30T06:39:49;6.60;99.90
9977;DHT22;5029;47.378;11.776;2022-10-30T06:45:09;6.70;99.90
9977;DHT22;5029;47.378;11.776;2022-10-30T06:50:15;6.70;99.90
9977;DHT22;5029;47.378;11.776;2022-10-30T06:55:21;6.60;99.90
9977;DHT22;5029;47.378;11.776;2022-10-30T07:00:25;6.60;99.90
9977;DHT22;5029;47.378;11.776;2022-10-30T07:05:28;6.60;99.90
9977;DHT22;5029;47.378;11.776;2022-10-30T07:16:20;6.90;99.90
9977;DHT22;5029;47.378;11.776;2022-10-30T07:21:26;6.90;99.90
9977;DHT22;5029;47.378;11.776;2022-10-30T07:26:36;7.00;99.90
9977;DHT22;5029;47.378;11.776;2022-10-30T07:31:53;7.00;99.90
9977;DHT22;5029;47.378;11.776;2022-10-30T07:37:07;7.10;99.90
9977;DHT22;5029;47.378;11.776;2022-10-30T07:42:16;6.90;99.90
9977;DHT22;5029;47.378;11.776;2022-10-30T07:47:38;7.00;99.90
9977;DHT22;5029;47.378;11.776;2022-10-30T07:52:57;6.90;99.90
9977;DHT22;5029;47.378;11.776;2022-10-30T07:58:14;7.10;99.90
9977;DHT22;5029;47.378;11.776;2022-10-30T08:04:09;7.10;99.90
9977;DHT22;5029;47.378;11.776;2022-10-30T08:09:33;7.20;99.90
9977;DHT22;5029;47.378;11.776;2022-10-30T08:14:52;7.40;99.90
9977;DHT22;5029;47.378;11.776;2022-10-30T08:20:18;7.30;99.90
9977;DHT22;5029;47.378;11.776;2022-10-30T08:25:29;7.40;99.90
9977;DHT22;5029;47.378;11.776;2022-10-30T08:30:54;7.60;99.90
9977;DHT22;5029;47.378;11.776;2022-10-30T08:36:14;8.00;99.90
9977;DHT22;5029;47.378;11.776;2022-10-30T08:41:24;8.00;99.90
9977;DHT22;5029;47.378;11.776;2022-10-30T08:46:30;8.10;99.90
9977;DHT22;5029;47.378;11.776;2022-10-30T08:51:53;8.10;99.90
9977;DHT22;5029;47.378;11.776;2022-10-30T08:56:57;8.40;99.90
9977;DHT22;5029;47.378;11.776;2022-10-30T09:02:03;8.60;99.90
9977;DHT22;5029;47.378;11.776;2022-10-30T09:07:13;8.60;99.90
9977;DHT22;5029;47.378;11.776;2022-10-30T09:12:17;8.90;99.90
9977;DHT22;5029;47.378;11.776;2022-10-30T09:17:24;9.10;99.90
9977;DHT22;5029;47.378;11.776;2022-10-30T09:22:29;9.20;99.90
9977;DHT22;5029;47.378;11.776;2022-10-30T09:27:40;9.50;99.90
9977;DHT22;5029;47.378;11.776;2022-10-30T09:32:44;9.20;99.90
9977;DHT22;5029;47.378;11.776;2022-10-30T09:37:59;9.40;99.90
9977;DHT22;5029;47.378;11.776;2022-10-30T09:43:19;9.60;99.90
9977;DHT22;5029;47.378;11.776;2022-10-30T09:54:29;10.00;99.90
9977;DHT22;5029;47.378;11.776;2022-10-30T10:00:10;10.50;99.90
9977;DHT22;5029;47.378;11.776;2022-10-30T10:05:18;10.60;99.90
9977;DHT22;5029;47.378;11.776;2022-10-30T10:10:50;10.70;99.90
9977;DHT22;5029;47.378;11.776;2022-10-30T10:16:09;10.70;99.90
9977;DHT22;5029;47.378;11.776;2022-10-30T10:21:27;10.70;99.90
9977;DHT22;5029;47.378;11.776;2022-10-30T10:26:57;11.10;99.90
9977;DHT22;5029;47.378;11.776;2022-10-30T14:39:49;13.80;99.90
9977;DHT22;5029;47.378;11.776;2022-10-30T14:45:25;13.70;99.90
9977;DHT22;5029;47.378;11.776;2022-10-30T14:51:02;13.90;99.90
9977;DHT22;5029;47.378;11.776;2022-10-30T14:56:22;14.30;99.90
9977;DHT22;5029;47.378;11.776;2022-10-30T15:01:36;14.70;99.90
9977;DHT22;5029;47.378;11.776;2022-10-30T15:06:53;14.10;99.90
9977;DHT22;5029;47.378;11.776;2022-10-30T15:12:29;13.70;99.90
9977;DHT22;5029;47.378;11.776;2022-10-30T15:17:37;13.60;99.90
9977;DHT22;5029;47.378;11.776;2022-10-30T15:22:41;13.70;99.90
9977;DHT22;5029;47.378;11.776;2022-10-30T15:27:49;13.40;99.90
9977;DHT22;5029;47.378;11.776;2022-10-30T15:32:54;13.20;99.90
9977;DHT22;5029;47.378;11.776;2022-10-30T15:38:01;13.30;99.90
9977;DHT22;5029;47.378;11.776;2022-10-30T15:43:10;13.00;99.90
9977;DHT22;5029;47.378;11.776;2022-10-30T15:48:21;13.10;99.90
9977;DHT22;5029;47.378;11.776;2022-10-30T15:53:35;13.30;99.90
9977;DHT22;5029;47.378;11.776;2022-10-30T16:40:04;11.80;99.90
9977;DHT22;5029;47.378;11.776;2022-10-30T17:12:28;11.90;99.90
9977;DHT22;5029;47.378;11.776;2022-10-30T17:17:38;11.80;99.90
9977;DHT22;5029;47.378;11.776;2022-10-30T17:22:45;11.70;99.90
9977;DHT22;5029;47.378;11.776;2022-10-30T17:27:51;11.60;99.90
9977;DHT22;5029;47.378;11.776;2022-10-30T17:32:56;11.40;99.90
9977;DHT22;5029;47.378;11.776;2022-10-30T17:38:00;11.60;99.90
9977;DHT22;5029;47.378;11.776;2022-10-30T17:43:10;11.50;99.90
9977;DHT22;5029;47.378;11.776;2022-10-30T17:48:17;11.20;99.90
9977;DHT22;5029;47.378;11.776;2022-10-30T17:53:23;10.90;99.90
9977;DHT22;5029;47.378;11.776;2022-10-30T17:58:44;11.00;99.90
9977;DHT22;5029;47.378;11.776;2022-10-30T18:03:50;11.00;99.90
9977;DHT22;5029;47.378;11.776;2022-10-30T18:08:56;10.80;99.90
9977;DHT22;5029;47.378;11.776;2022-10-30T18:14:03;10.70;99.90
9977;DHT22;5029;47.378;11.776;2022-10-30T18:19:10;10.60;99.90
9977;DHT22;5029;47.378;11.776;2022-10-30T18:24:16;10.40;99.90
9977;DHT22;5029;47.378;11.776;2022-10-30T18:29:29;10.60;99.90
9977;DHT22;5029;47.378;11.776;2022-10-30T18:34:34;10.50;99.90
9977;DHT22;5029;47.378;11.776;2022-10-30T18:39:38;10.50;99.90
9977;DHT22;5029;47.378;11.776;2022-10-30T18:44:45;10.40;99.90
9977;DHT22;5029;47.378;11.776;2022-10-30T18:49:55;10.50;99.90
9977;DHT22;5029;47.378;11.776;2022-10-30T18:55:11;10.30;99.90
9977;DHT22;5029;47.378;11.776;2022-10-30T19:00:22;10.10;99.90
9977;DHT22;5029;47.378;11.776;2022-10-30T19:05:48;10.00;99.90
9977;DHT22;5029;47.378;11.776;2022-10-30T19:10:53;9.80;99.90
9977;DHT22;5029;47.378;11.776;2022-10-30T19:16:07;9.90;99.90
9977;DHT22;5029;47.378;11.776;2022-10-30T19:21:14;9.90;99.90
9977;DHT22;5029;47.378;11.776;2022-10-30T19:26:22;9.70;99.90
9977;DHT22;5029;47.378;11.776;2022-10-30T19:31:30;9.70;99.90
9977;DHT22;5029;47.378;11.776;2022-10-30T19:36:39;9.90;99.90
9977;DHT22;5029;47.378;11.776;2022-10-30T19:41:50;9.90;99.90
9977;DHT22;5029;47.378;11.776;2022-10-30T19:46:59;10.00;99.90
9977;DHT22;5029;47.378;11.776;2022-10-30T19:52:31;10.10;99.90
9977;DHT22;5029;47.378;11.776;2022-10-30T19:57:45;10.10;99.90
9977;DHT22;5029;47.378;11.776;2022-10-30T20:02:57;10.00;99.90
9977;DHT22;5029;47.378;11.776;2022-10-30T20:08:04;9.90;99.90
9977;DHT22;5029;47.378;11.776;2022-10-30T20:13:12;9.70;99.90
9977;DHT22;5029;47.378;11.776;2022-10-30T20:18:26;9.50;99.90
9977;DHT22;5029;47.378;11.776;2022-10-30T20:23:40;9.40;99.90
9977;DHT22;5029;47.378;11.776;2022-10-30T20:28:45;9.30;99.90
9977;DHT22;5029;47.378;11.776;2022-10-30T20:33:55;9.40;99.90
9977;DHT22;5029;47.378;11.776;2022-10-30T20:39:01;9.30;99.90
9977;DHT22;5029;47.378;11.776;2022-10-30T20:44:11;9.40;99.90
9977;DHT22;5029;47.378;11.776;2022-10-30T20:49:18;9.60;99.90
9977;DHT22;5029;47.378;11.776;2022-10-30T20:54:22;9.50;99.90
9977;DHT22;5029;47.378;11.776;2022-10-30T20:59:28;9.50;99.90
9977;DHT22;5029;47.378;11.776;2022-10-30T21:10:26;9.30;99.90
9977;DHT22;5029;47.378;11.776;2022-10-30T21:15:41;9.40;99.90
9977;DHT22;5029;47.378;11.776;2022-10-30T21:27:27;9.20;99.90
9977;DHT22;5029;47.378;11.776;2022-10-30T21:32:37;9.10;99.90
9977;DHT22;5029;47.378;11.776;2022-10-30T21:37:54;9.00;99.90
9977;DHT22;5029;47.378;11.776;2022-10-30T21:42:59;8.90;99.90
9977;DHT22;5029;47.378;11.776;2022-10-30T21:48:06;8.90;99.90
9977;DHT22;5029;47.378;11.776;2022-10-30T21:53:15;8.70;99.90
9977;DHT22;5029;47.378;11.776;2022-10-30T21:58:22;8.80;1.00
9977;DHT22;5029;47.378;11.776;2022-10-30T22:03:28;8.80;99.90
9977;DHT22;5029;47.378;11.776;2022-10-30T22:08:32;8.80;99.90
9977;DHT22;5029;47.378;11.776;2022-10-30T22:13:39;8.80;99.90
9977;DHT22;5029;47.378;11.776;2022-10-30T22:18:43;8.70;99.90
9977;DHT22;5029;47.378;11.776;2022-10-30T22:23:47;8.70;99.90
9977;DHT22;5029;47.378;11.776;2022-10-30T22:28:54;8.70;99.90
9977;DHT22;5029;47.378;11.776;2022-10-30T22:34:01;8.60;99.90
9977;DHT22;5029;47.378;11.776;2022-10-30T22:39:07;8.70;99.90
9977;DHT22;5029;47.378;11.776;2022-10-30T22:44:15;8.70;99.90
9977;DHT22;5029;47.378;11.776;2022-10-30T22:49:21;8.60;99.90
9977;DHT22;5029;47.378;11.776;2022-10-30T22:54:25;8.60;99.90
9977;DHT22;5029;47.378;11.776;2022-10-30T22:59:30;8.60;99.90
9977;DHT22;5029;47.378;11.776;2022-10-30T23:04:34;8.50;99.90
9977;DHT22;5029;47.378;11.776;2022-10-30T23:09:38;8.60;99.90
9977;DHT22;5029;47.378;11.776;2022-10-30T23:14:44;8.50;99.90
9977;DHT22;5029;47.378;11.776;2022-10-30T23:20:01;8.40;99.90
9977;DHT22;5029;47.378;11.776;2022-10-30T23:25:08;8.30;99.90
9977;DHT22;5029;47.378;11.776;2022-10-30T23:36:28;8.20;99.90
9977;DHT22;5029;47.378;11.776;2022-10-30T23:41:32;8.30;99.90
9977;DHT22;5029;47.378;11.776;2022-10-30T23:46:37;8.20;99.90
9977;DHT22;5029;47.378;11.776;2022-10-30T23:51:42;8.00;99.90
9977;DHT22;5029;47.378;11.776;2022-10-30T23:56:46;8.00;1.00
